DAAG

Houari Boumediene Airport

Algiers, Algeria
METAR DAAG 190900Z 24003KT 200V280 9999 FEW020TCU FEW026CB SCT080 21/16 Q1014
Observed Flight Rules
Oct-19 @ 09:00 UTC (23 minutes ago) Visual Flight Rules
Wind Visibility Clouds
240° at 3 knots 10,000+ meters
  • Few at 2,000' AGL
  • Few at 2,600' AGL
  • Scattered at 8,000' AGL
Temperatures Readings
Current 21°C / 70°F
Dewpoint 16°C / 61°F
Humidity 73%
Altimeter 29.94" Hg
Pressure 1014 hPa
Elevation 25
METAR DAAG 190900Z 24003KT 200V280 9999 FEW020TCU FEW026CB SCT080 21/16 Q1014
Observed Flight Rules
Oct-19 @ 09:00 UTC
(23 minutes ago)
VFR
Wind Visibility
240° at 3 knots 10,000+ meters
Clouds
  • Few at 2,000' AGL
  • Few at 2,600' AGL
  • Scattered at 8,000' AGL
Temperature Dewpoint
21°C / 70°F 16°C / 61°F
Humidity Altimeter Pressure
73% 29.94" Hg 1014 hPa